sensor_id;sensor_type;location;lat;lon;timestamp;pressure;altitude;pressure_sealevel;temperature;humidity
20624;BME280;10471;42.736;23.346;2023-01-19T00:01:23;94429.47;;;13.12;78.82
20624;BME280;10471;42.736;23.346;2023-01-19T00:03:48;94421.06;;;13.10;77.78
20624;BME280;10471;42.736;23.346;2023-01-19T00:06:14;94432.75;;;13.01;77.41
20624;BME280;10471;42.736;23.346;2023-01-19T00:08:39;94444.88;;;13.02;77.10
20624;BME280;10471;42.736;23.346;2023-01-19T00:11:05;94444.75;;;12.99;76.92
20624;BME280;10471;42.736;23.346;2023-01-19T00:13:31;94445.19;;;13.01;78.19
20624;BME280;10471;42.736;23.346;2023-01-19T00:15:57;94456.84;;;13.00;77.36
20624;BME280;10471;42.736;23.346;2023-01-19T00:18:23;94459.50;;;13.00;76.25
20624;BME280;10471;42.736;23.346;2023-01-19T00:20:48;94458.09;;;13.19;73.50
20624;BME280;10471;42.736;23.346;2023-01-19T00:23:14;94467.09;;;13.43;72.29
20624;BME280;10471;42.736;23.346;2023-01-19T00:25:40;94454.16;;;13.50;69.62
20624;BME280;10471;42.736;23.346;2023-01-19T00:28:09;94459.88;;;13.69;68.35
20624;BME280;10471;42.736;23.346;2023-01-19T00:30:34;94453.09;;;14.34;63.30
20624;BME280;10471;42.736;23.346;2023-01-19T00:33:00;94476.25;;;14.17;66.07
20624;BME280;10471;42.736;23.346;2023-01-19T00:35:25;94458.22;;;14.02;67.84
20624;BME280;10471;42.736;23.346;2023-01-19T00:37:50;94466.22;;;13.85;69.32
20624;BME280;10471;42.736;23.346;2023-01-19T00:40:16;94473.59;;;13.71;68.67
20624;BME280;10471;42.736;23.346;2023-01-19T00:42:41;94476.09;;;13.59;69.34
20624;BME280;10471;42.736;23.346;2023-01-19T00:45:14;94479.81;;;13.67;67.68
20624;BME280;10471;42.736;23.346;2023-01-19T00:47:41;94472.66;;;13.59;68.14
20624;BME280;10471;42.736;23.346;2023-01-19T00:50:07;94497.88;;;13.56;68.95
20624;BME280;10471;42.736;23.346;2023-01-19T00:52:36;94471.75;;;14.09;64.08
20624;BME280;10471;42.736;23.346;2023-01-19T00:55:01;94457.88;;;14.12;62.94
20624;BME280;10471;42.736;23.346;2023-01-19T00:57:27;94468.47;;;14.12;63.98
20624;BME280;10471;42.736;23.346;2023-01-19T00:59:53;94459.56;;;14.16;63.88
20624;BME280;10471;42.736;23.346;2023-01-19T01:02:19;94474.22;;;14.14;63.66
20624;BME280;10471;42.736;23.346;2023-01-19T01:04:44;94453.81;;;14.06;64.63
20624;BME280;10471;42.736;23.346;2023-01-19T01:07:10;94475.22;;;13.92;66.52
20624;BME280;10471;42.736;23.346;2023-01-19T01:09:35;94487.06;;;13.95;66.14
20624;BME280;10471;42.736;23.346;2023-01-19T01:12:01;94487.69;;;13.92;66.49
20624;BME280;10471;42.736;23.346;2023-01-19T01:14:26;94484.25;;;13.91;66.41
20624;BME280;10471;42.736;23.346;2023-01-19T01:16:52;94469.56;;;14.11;65.82
20624;BME280;10471;42.736;23.346;2023-01-19T01:19:17;94470.31;;;14.48;62.85
20624;BME280;10471;42.736;23.346;2023-01-19T01:21:43;94469.38;;;14.73;60.84
20624;BME280;10471;42.736;23.346;2023-01-19T01:24:08;94464.59;;;14.87;60.21
20624;BME280;10471;42.736;23.346;2023-01-19T01:26:34;94462.41;;;14.89;59.81
20624;BME280;10471;42.736;23.346;2023-01-19T01:29:00;94452.69;;;14.93;58.73
20624;BME280;10471;42.736;23.346;2023-01-19T01:31:25;94460.56;;;14.81;60.34
20624;BME280;10471;42.736;23.346;2023-01-19T01:33:51;94467.19;;;14.96;59.11
20624;BME280;10471;42.736;23.346;2023-01-19T01:36:16;94465.00;;;14.98;58.71
20624;BME280;10471;42.736;23.346;2023-01-19T01:38:43;94461.75;;;15.12;56.67
20624;BME280;10471;42.736;23.346;2023-01-19T01:41:09;94465.69;;;15.07;57.96
20624;BME280;10471;42.736;23.346;2023-01-19T01:43:52;94458.06;;;15.05;57.25
20624;BME280;10471;42.736;23.346;2023-01-19T01:46:20;94483.09;;;14.96;59.20
20624;BME280;10471;42.736;23.346;2023-01-19T01:56:38;94470.75;;;14.79;58.04
20624;BME280;10471;42.736;23.346;2023-01-19T01:59:07;94473.66;;;15.07;56.40
20624;BME280;10471;42.736;23.346;2023-01-19T02:01:34;94455.22;;;15.10;56.59
20624;BME280;10471;42.736;23.346;2023-01-19T02:04:18;94468.22;;;15.03;57.73
20624;BME280;10471;42.736;23.346;2023-01-19T02:06:45;94467.31;;;14.99;56.21
20624;BME280;10471;42.736;23.346;2023-01-19T02:09:31;94457.47;;;15.20;55.28
20624;BME280;10471;42.736;23.346;2023-01-19T02:12:17;94467.63;;;15.18;54.78
20624;BME280;10471;42.736;23.346;2023-01-19T02:15:01;94433.00;;;15.35;54.20
20624;BME280;10471;42.736;23.346;2023-01-19T02:17:26;94441.63;;;15.32;54.85
20624;BME280;10471;42.736;23.346;2023-01-19T02:19:51;94444.03;;;15.25;54.86
20624;BME280;10471;42.736;23.346;2023-01-19T02:22:23;94439.66;;;15.20;54.87
20624;BME280;10471;42.736;23.346;2023-01-19T02:24:51;94440.94;;;15.14;55.37
20624;BME280;10471;42.736;23.346;2023-01-19T02:27:18;94438.75;;;15.16;54.30
20624;BME280;10471;42.736;23.346;2023-01-19T02:29:44;94421.72;;;15.17;54.64
20624;BME280;10471;42.736;23.346;2023-01-19T02:32:09;94411.09;;;15.38;53.42
20624;BME280;10471;42.736;23.346;2023-01-19T02:34:35;94429.25;;;15.36;54.28
20624;BME280;10471;42.736;23.346;2023-01-19T02:37:05;94428.03;;;15.45;53.15
20624;BME280;10471;42.736;23.346;2023-01-19T02:42:06;94420.41;;;15.44;52.90
20624;BME280;10471;42.736;23.346;2023-01-19T02:44:34;94433.59;;;15.52;52.31
20624;BME280;10471;42.736;23.346;2023-01-19T02:47:01;94435.38;;;15.48;52.32
20624;BME280;10471;42.736;23.346;2023-01-19T02:49:28;94432.13;;;15.43;53.05
20624;BME280;10471;42.736;23.346;2023-01-19T02:51:54;94437.91;;;15.45;53.23
20624;BME280;10471;42.736;23.346;2023-01-19T02:57:35;94431.81;;;15.44;53.19
20624;BME280;10471;42.736;23.346;2023-01-19T03:08:17;94435.81;;;15.50;52.97
20624;BME280;10471;42.736;23.346;2023-01-19T03:13:43;94421.72;;;15.38;52.65
20624;BME280;10471;42.736;23.346;2023-01-19T03:16:11;94420.75;;;15.22;53.89
20624;BME280;10471;42.736;23.346;2023-01-19T03:18:42;94417.19;;;15.38;52.14
20624;BME280;10471;42.736;23.346;2023-01-19T03:21:09;94421.91;;;15.33;52.46
20624;BME280;10471;42.736;23.346;2023-01-19T03:23:39;94416.19;;;15.31;52.75
20624;BME280;10471;42.736;23.346;2023-01-19T03:26:09;94412.66;;;15.39;51.58
20624;BME280;10471;42.736;23.346;2023-01-19T03:28:38;94402.91;;;15.31;52.30
20624;BME280;10471;42.736;23.346;2023-01-19T03:31:11;94416.19;;;15.31;51.61
20624;BME280;10471;42.736;23.346;2023-01-19T03:33:40;94413.53;;;15.31;50.96
20624;BME280;10471;42.736;23.346;2023-01-19T03:36:12;94406.03;;;15.45;51.08
20624;BME280;10471;42.736;23.346;2023-01-19T03:38:40;94395.53;;;15.48;50.33
20624;BME280;10471;42.736;23.346;2023-01-19T03:41:12;94390.34;;;15.52;50.50
20624;BME280;10471;42.736;23.346;2023-01-19T03:43:41;94385.03;;;15.64;49.76
20624;BME280;10471;42.736;23.346;2023-01-19T03:46:08;94399.88;;;15.65;49.64
20624;BME280;10471;42.736;23.346;2023-01-19T03:48:35;94386.38;;;15.70;49.73
20624;BME280;10471;42.736;23.346;2023-01-19T03:51:06;94399.09;;;15.64;50.53
20624;BME280;10471;42.736;23.346;2023-01-19T03:53:33;94402.75;;;15.60;50.64
20624;BME280;10471;42.736;23.346;2023-01-19T03:55:58;94394.56;;;15.53;50.06
20624;BME280;10471;42.736;23.346;2023-01-19T03:58:24;94394.09;;;15.51;50.05
20624;BME280;10471;42.736;23.346;2023-01-19T04:00:50;94394.97;;;15.55;49.88
20624;BME280;10471;42.736;23.346;2023-01-19T04:03:16;94394.34;;;15.58;49.37
20624;BME280;10471;42.736;23.346;2023-01-19T04:05:43;94390.81;;;15.66;49.06
20624;BME280;10471;42.736;23.346;2023-01-19T04:08:09;94407.84;;;15.65;49.05
20624;BME280;10471;42.736;23.346;2023-01-19T04:10:35;94398.97;;;15.61;48.65
20624;BME280;10471;42.736;23.346;2023-01-19T04:13:01;94398.97;;;15.61;49.03
20624;BME280;10471;42.736;23.346;2023-01-19T04:15:28;94403.63;;;15.64;49.07
20624;BME280;10471;42.736;23.346;2023-01-19T04:17:57;94390.13;;;15.69;48.83
20624;BME280;10471;42.736;23.346;2023-01-19T04:20:22;94380.84;;;15.63;48.78
20624;BME280;10471;42.736;23.346;2023-01-19T04:22:48;94377.28;;;15.59;48.08
20624;BME280;10471;42.736;23.346;2023-01-19T04:25:14;94370.00;;;15.68;47.83
20624;BME280;10471;42.736;23.346;2023-01-19T04:27:40;94373.97;;;15.62;48.59
20624;BME280;10471;42.736;23.346;2023-01-19T04:30:06;94380.84;;;15.63;47.88
20624;BME280;10471;42.736;23.346;2023-01-19T04:32:32;94389.03;;;15.58;48.08
20624;BME280;10471;42.736;23.346;2023-01-19T04:34:57;94377.19;;;15.67;48.24
20624;BME280;10471;42.736;23.346;2023-01-19T04:37:23;94375.75;;;15.70;47.25
20624;BME280;10471;42.736;23.346;2023-01-19T04:39:49;94394.56;;;15.65;48.31
20624;BME280;10471;42.736;23.346;2023-01-19T04:42:14;94390.13;;;15.69;47.23
20624;BME280;10471;42.736;23.346;2023-01-19T04:44:41;94413.16;;;15.65;47.81
20624;BME280;10471;42.736;23.346;2023-01-19T04:47:06;94417.22;;;15.50;47.71
20624;BME280;10471;42.736;23.346;2023-01-19T04:49:31;94408.81;;;15.48;47.28
20624;BME280;10471;42.736;23.346;2023-01-19T04:51:57;94422.13;;;15.60;47.05
20624;BME280;10471;42.736;23.346;2023-01-19T04:54:22;94400.75;;;15.69;47.31
20624;BME280;10471;42.736;23.346;2023-01-19T04:56:48;94402.31;;;15.70;47.55
20624;BME280;10471;42.736;23.346;2023-01-19T04:59:13;94417.34;;;15.66;46.45
20624;BME280;10471;42.736;23.346;2023-01-19T05:01:39;94413.69;;;15.58;47.31
20624;BME280;10471;42.736;23.346;2023-01-19T05:04:04;94432.41;;;15.62;46.86
20624;BME280;10471;42.736;23.346;2023-01-19T05:06:31;94452.56;;;15.74;46.26
20624;BME280;10471;42.736;23.346;2023-01-19T05:08:57;94461.66;;;15.74;46.50
20624;BME280;10471;42.736;23.346;2023-01-19T05:11:22;94443.16;;;15.77;46.09
20624;BME280;10471;42.736;23.346;2023-01-19T05:13:48;94460.06;;;15.61;46.62
20624;BME280;10471;42.736;23.346;2023-01-19T05:16:13;94453.19;;;15.60;46.11
20624;BME280;10471;42.736;23.346;2023-01-19T05:18:39;94481.78;;;15.63;46.10
20624;BME280;10471;42.736;23.346;2023-01-19T05:21:05;94473.47;;;15.64;46.91
20624;BME280;10471;42.736;23.346;2023-01-19T05:23:31;94479.00;;;15.59;46.89
20624;BME280;10471;42.736;23.346;2023-01-19T05:25:57;94458.56;;;15.39;47.63
20624;BME280;10471;42.736;23.346;2023-01-19T05:28:26;94459.13;;;15.45;47.46
20624;BME280;10471;42.736;23.346;2023-01-19T05:30:51;94455.84;;;15.60;46.21
20624;BME280;10471;42.736;23.346;2023-01-19T05:33:17;94459.66;;;15.71;46.35
20624;BME280;10471;42.736;23.346;2023-01-19T05:35:42;94471.78;;;15.60;47.83
20624;BME280;10471;42.736;23.346;2023-01-19T05:38:07;94448.84;;;15.43;46.93
20624;BME280;10471;42.736;23.346;2023-01-19T05:40:33;94458.69;;;15.43;47.48
20624;BME280;10471;42.736;23.346;2023-01-19T05:42:58;94459.03;;;15.21;49.38
20624;BME280;10471;42.736;23.346;2023-01-19T05:45:26;94474.13;;;15.08;49.22
20624;BME280;10471;42.736;23.346;2023-01-19T05:47:53;94461.13;;;14.95;49.05
20624;BME280;10471;42.736;23.346;2023-01-19T05:50:19;94492.56;;;15.05;48.41
20624;BME280;10471;42.736;23.346;2023-01-19T05:52:44;94475.97;;;15.08;48.01
20624;BME280;10471;42.736;23.346;2023-01-19T05:55:10;94499.94;;;15.20;47.38
20624;BME280;10471;42.736;23.346;2023-01-19T05:57:35;94488.28;;;15.33;47.12
20624;BME280;10471;42.736;23.346;2023-01-19T06:00:02;94484.53;;;15.34;46.90
20624;BME280;10471;42.736;23.346;2023-01-19T06:02:28;94483.44;;;15.35;47.25
20624;BME280;10471;42.736;23.346;2023-01-19T06:04:54;94483.19;;;15.28;47.35
20624;BME280;10471;42.736;23.346;2023-01-19T06:07:20;94488.16;;;15.50;46.07
20624;BME280;10471;42.736;23.346;2023-01-19T06:09:45;94486.84;;;15.56;46.86
20624;BME280;10471;42.736;23.346;2023-01-19T06:12:11;94471.78;;;15.60;47.30
20624;BME280;10471;42.736;23.346;2023-01-19T06:14:36;94472.00;;;15.55;46.17
20624;BME280;10471;42.736;23.346;2023-01-19T06:17:02;94480.66;;;15.64;46.16
20624;BME280;10471;42.736;23.346;2023-01-19T06:19:30;94476.25;;;15.68;45.71
20624;BME280;10471;42.736;23.346;2023-01-19T06:21:55;94481.78;;;15.74;45.65
20624;BME280;10471;42.736;23.346;2023-01-19T06:24:21;94485.38;;;15.78;45.53
20624;BME280;10471;42.736;23.346;2023-01-19T06:26:47;94488.34;;;15.77;45.65
20624;BME280;10471;42.736;23.346;2023-01-19T06:29:13;94475.38;;;15.75;46.00
20624;BME280;10471;42.736;23.346;2023-01-19T06:31:39;94478.94;;;15.79;45.41
20624;BME280;10471;42.736;23.346;2023-01-19T06:34:04;94465.59;;;16.00;45.51
20624;BME280;10471;42.736;23.346;2023-01-19T06:36:30;94479.00;;;16.03;45.46
20624;BME280;10471;42.736;23.346;2023-01-19T06:38:55;94483.22;;;16.16;44.84
20624;BME280;10471;42.736;23.346;2023-01-19T06:41:21;94485.44;;;16.26;44.35
20624;BME280;10471;42.736;23.346;2023-01-19T06:43:46;94475.47;;;16.23;44.97
20624;BME280;10471;42.736;23.346;2023-01-19T06:46:11;94476.16;;;16.20;44.37
20624;BME280;10471;42.736;23.346;2023-01-19T06:48:37;94470.59;;;16.25;43.69
20624;BME280;10471;42.736;23.346;2023-01-19T06:51:03;94481.25;;;16.37;43.89
20624;BME280;10471;42.736;23.346;2023-01-19T06:53:30;94488.91;;;16.39;44.47
20624;BME280;10471;42.736;23.346;2023-01-19T06:56:00;94477.50;;;16.38;44.07
20624;BME280;10471;42.736;23.346;2023-01-19T06:58:29;94487.13;;;16.54;43.81
20624;BME280;10471;42.736;23.346;2023-01-19T07:01:05;94496.56;;;16.52;44.03
20624;BME280;10471;42.736;23.346;2023-01-19T07:03:31;94473.50;;;16.56;43.22
20624;BME280;10471;42.736;23.346;2023-01-19T07:05:57;94455.09;;;16.63;43.05
20624;BME280;10471;42.736;23.346;2023-01-19T07:08:26;94462.19;;;16.59;43.08
20624;BME280;10471;42.736;23.346;2023-01-19T07:10:52;94457.97;;;16.70;42.73
20624;BME280;10471;42.736;23.346;2023-01-19T07:13:22;94463.50;;;16.77;42.14
20624;BME280;10471;42.736;23.346;2023-01-19T07:15:48;94470.72;;;16.76;42.57
20624;BME280;10471;42.736;23.346;2023-01-19T07:18:13;94473.38;;;16.76;42.71
20624;BME280;10471;42.736;23.346;2023-01-19T07:20:39;94467.81;;;16.81;42.32
20624;BME280;10471;42.736;23.346;2023-01-19T07:23:04;94461.50;;;16.86;41.78
20624;BME280;10471;42.736;23.346;2023-01-19T07:25:30;94451.72;;;16.90;42.40
20624;BME280;10471;42.736;23.346;2023-01-19T07:27:57;94465.00;;;17.02;40.64
20624;BME280;10471;42.736;23.346;2023-01-19T07:30:22;94455.22;;;17.06;41.24
20624;BME280;10471;42.736;23.346;2023-01-19T07:32:48;94472.53;;;17.11;40.59
20624;BME280;10471;42.736;23.346;2023-01-19T07:35:13;94446.44;;;17.17;40.86
20624;BME280;10471;42.736;23.346;2023-01-19T07:37:39;94447.97;;;17.18;40.67
20624;BME280;10471;42.736;23.346;2023-01-19T07:40:05;94460.72;;;17.24;40.47
20624;BME280;10471;42.736;23.346;2023-01-19T07:42:30;94451.66;;;17.25;40.19
20624;BME280;10471;42.736;23.346;2023-01-19T07:44:56;94478.50;;;17.32;39.84
20624;BME280;10471;42.736;23.346;2023-01-19T07:47:21;94431.31;;;17.33;39.63
20624;BME280;10471;42.736;23.346;2023-01-19T07:49:46;94465.16;;;17.32;40.42
20624;BME280;10471;42.736;23.346;2023-01-19T07:52:12;94469.81;;;17.35;40.28
20624;BME280;10471;42.736;23.346;2023-01-19T07:54:37;94447.59;;;17.43;39.86
20624;BME280;10471;42.736;23.346;2023-01-19T07:57:03;94424.72;;;17.42;39.58
20624;BME280;10471;42.736;23.346;2023-01-19T07:59:28;94424.47;;;17.47;38.56
20624;BME280;10471;42.736;23.346;2023-01-19T08:01:55;94410.16;;;17.52;39.23
20624;BME280;10471;42.736;23.346;2023-01-19T08:04:22;94387.53;;;17.61;37.95
20624;BME280;10471;42.736;23.346;2023-01-19T08:06:47;94420.41;;;17.65;38.61
20624;BME280;10471;42.736;23.346;2023-01-19T08:09:13;94426.59;;;17.69;38.66
20624;BME280;10471;42.736;23.346;2023-01-19T08:11:38;94435.44;;;17.73;38.54
20624;BME280;10471;42.736;23.346;2023-01-19T08:14:04;94414.56;;;17.75;38.25
20624;BME280;10471;42.736;23.346;2023-01-19T08:16:29;94429.84;;;17.78;38.28
20624;BME280;10471;42.736;23.346;2023-01-19T08:18:54;94426.75;;;17.76;38.40
20624;BME280;10471;42.736;23.346;2023-01-19T08:21:20;94428.50;;;17.84;39.12
20624;BME280;10471;42.736;23.346;2023-01-19T08:23:55;94418.84;;;17.79;38.72
20624;BME280;10471;42.736;23.346;2023-01-19T08:26:32;94439.16;;;17.84;38.59
20624;BME280;10471;42.736;23.346;2023-01-19T08:29:00;94424.81;;;17.88;37.87
20624;BME280;10471;42.736;23.346;2023-01-19T08:31:26;94429.53;;;17.95;38.05
20624;BME280;10471;42.736;23.346;2023-01-19T08:33:52;94435.28;;;17.97;37.68
20624;BME280;10471;42.736;23.346;2023-01-19T08:36:18;94439.16;;;17.99;38.17
20624;BME280;10471;42.736;23.346;2023-01-19T08:38:44;94443.47;;;18.04;37.77
20624;BME280;10471;42.736;23.346;2023-01-19T08:41:10;94432.81;;;18.04;37.98
20624;BME280;10471;42.736;23.346;2023-01-19T08:43:36;94454.13;;;18.04;37.99
20624;BME280;10471;42.736;23.346;2023-01-19T08:46:04;94447.44;;;18.10;38.60
20624;BME280;10471;42.736;23.346;2023-01-19T08:48:30;94454.31;;;18.11;38.30
20624;BME280;10471;42.736;23.346;2023-01-19T08:50:56;94444.94;;;18.17;38.44
20624;BME280;10471;42.736;23.346;2023-01-19T08:53:22;94450.59;;;18.15;38.25
20624;BME280;10471;42.736;23.346;2023-01-19T08:55:54;94442.94;;;18.14;38.12
20624;BME280;10471;42.736;23.346;2023-01-19T08:58:21;94418.59;;;18.15;38.28
20624;BME280;10471;42.736;23.346;2023-01-19T09:00:47;94429.03;;;18.05;38.62
20624;BME280;10471;42.736;23.346;2023-01-19T09:03:13;94426.28;;;18.17;38.07
20624;BME280;10471;42.736;23.346;2023-01-19T09:05:39;94412.00;;;18.09;38.10
20624;BME280;10471;42.736;23.346;2023-01-19T09:08:12;94436.16;;;18.16;38.46
20624;BME280;10471;42.736;23.346;2023-01-19T09:10:44;94419.81;;;18.18;38.57
20624;BME280;10471;42.736;23.346;2023-01-19T09:13:10;94392.03;;;18.19;38.11
20624;BME280;10471;42.736;23.346;2023-01-19T09:15:39;94467.41;;;18.16;38.67
20624;BME280;10471;42.736;23.346;2023-01-19T09:18:07;94405.81;;;18.21;38.33
20624;BME280;10471;42.736;23.346;2023-01-19T09:20:34;94398.47;;;18.18;38.31
20624;BME280;10471;42.736;23.346;2023-01-19T09:23:02;94397.56;;;18.26;37.29
20624;BME280;10471;42.736;23.346;2023-01-19T09:25:28;94409.88;;;18.30;37.38
20624;BME280;10471;42.736;23.346;2023-01-19T09:27:54;94413.72;;;18.33;37.87
20624;BME280;10471;42.736;23.346;2023-01-19T09:30:20;94389.38;;;18.34;37.92
20624;BME280;10471;42.736;23.346;2023-01-19T09:32:45;94384.16;;;18.41;37.58
20624;BME280;10471;42.736;23.346;2023-01-19T09:35:11;94396.84;;;18.44;37.82
20624;BME280;10471;42.736;23.346;2023-01-19T09:37:36;94407.16;;;18.45;37.59
20624;BME280;10471;42.736;23.346;2023-01-19T09:40:05;94398.88;;;18.50;37.60
20624;BME280;10471;42.736;23.346;2023-01-19T09:42:40;94422.63;;;18.55;37.99
20624;BME280;10471;42.736;23.346;2023-01-19T09:45:14;94410.84;;;18.56;37.91
20624;BME280;10471;42.736;23.346;2023-01-19T09:47:41;94413.44;;;18.53;38.32
20624;BME280;10471;42.736;23.346;2023-01-19T09:50:33;94429.09;;;18.54;38.25
20624;BME280;10471;42.736;23.346;2023-01-19T09:53:15;94418.41;;;18.54;37.93
20624;BME280;10471;42.736;23.346;2023-01-19T09:55:42;94397.22;;;18.61;37.99
20624;BME280;10471;42.736;23.346;2023-01-19T09:58:15;94426.97;;;18.44;38.27
20624;BME280;10471;42.736;23.346;2023-01-19T10:00:49;94410.00;;;18.52;37.55
20624;BME280;10471;42.736;23.346;2023-01-19T10:03:16;94394.38;;;18.54;37.88
20624;BME280;10471;42.736;23.346;2023-01-19T10:05:49;94390.19;;;18.53;37.83
20624;BME280;10471;42.736;23.346;2023-01-19T10:08:50;94399.97;;;18.65;37.70
20624;BME280;10471;42.736;23.346;2023-01-19T10:11:32;94400.00;;;18.49;38.00
20624;BME280;10471;42.736;23.346;2023-01-19T10:14:02;94404.78;;;18.59;38.12
20624;BME280;10471;42.736;23.346;2023-01-19T10:19:23;94429.91;;;18.74;38.15
20624;BME280;10471;42.736;23.346;2023-01-19T10:21:54;94401.59;;;18.69;38.51
20624;BME280;10471;42.736;23.346;2023-01-19T10:24:41;94388.66;;;18.71;38.23
20624;BME280;10471;42.736;23.346;2023-01-19T10:27:21;94414.63;;;18.55;38.84
20624;BME280;10471;42.736;23.346;2023-01-19T10:29:48;94401.44;;;18.62;38.65
20624;BME280;10471;42.736;23.346;2023-01-19T10:32:23;94389.06;;;18.54;38.39
20624;BME280;10471;42.736;23.346;2023-01-19T10:34:50;94393.63;;;18.54;38.39
20624;BME280;10471;42.736;23.346;2023-01-19T10:39:43;94396.88;;;18.63;38.41
20624;BME280;10471;42.736;23.346;2023-01-19T10:42:11;94396.56;;;18.49;37.59
20624;BME280;10471;42.736;23.346;2023-01-19T10:44:37;94413.03;;;18.36;38.60
20624;BME280;10471;42.736;23.346;2023-01-19T10:47:04;94408.53;;;18.40;38.54
20624;BME280;10471;42.736;23.346;2023-01-19T10:51:59;94404.00;;;18.40;38.62
20624;BME280;10471;42.736;23.346;2023-01-19T10:54:27;94406.72;;;18.43;38.75
20624;BME280;10471;42.736;23.346;2023-01-19T10:57:06;94402.81;;;18.22;38.34
20624;BME280;10471;42.736;23.346;2023-01-19T11:02:18;94434.28;;;18.17;38.99
20624;BME280;10471;42.736;23.346;2023-01-19T11:04:46;94420.84;;;18.13;38.51
20624;BME280;10471;42.736;23.346;2023-01-19T11:13:08;94411.81;;;17.87;39.45
20624;BME280;10471;42.736;23.346;2023-01-19T11:15:42;94413.53;;;17.95;39.70
20624;BME280;10471;42.736;23.346;2023-01-19T11:18:36;94394.88;;;17.95;39.46
20624;BME280;10471;42.736;23.346;2023-01-19T11:21:07;94384.63;;;17.97;39.61
20624;BME280;10471;42.736;23.346;2023-01-19T11:23:37;94401.31;;;17.94;39.75
20624;BME280;10471;42.736;23.346;2023-01-19T11:26:08;94385.91;;;18.03;39.59
20624;BME280;10471;42.736;23.346;2023-01-19T11:28:42;94388.56;;;18.03;39.38
20624;BME280;10471;42.736;23.346;2023-01-19T11:36:18;94394.03;;;18.22;38.89
20624;BME280;10471;42.736;23.346;2023-01-19T11:38:47;94387.38;;;18.16;39.16
20624;BME280;10471;42.736;23.346;2023-01-19T11:41:28;94397.72;;;18.02;39.03
20624;BME280;10471;42.736;23.346;2023-01-19T11:43:56;94392.63;;;18.12;39.51
20624;BME280;10471;42.736;23.346;2023-01-19T11:46:25;94402.53;;;18.12;38.84
20624;BME280;10471;42.736;23.346;2023-01-19T11:49:16;94393.06;;;17.99;38.65
20624;BME280;10471;42.736;23.346;2023-01-19T11:52:33;94396.75;;;17.94;39.38
20624;BME280;10471;42.736;23.346;2023-01-19T11:54:53;94392.63;;;18.12;39.65
20624;BME280;10471;42.736;23.346;2023-01-19T11:57:19;94362.78;;;18.07;38.08
20624;BME280;10471;42.736;23.346;2023-01-19T11:59:45;94391.69;;;18.20;38.32
20624;BME280;10471;42.736;23.346;2023-01-19T12:02:22;94376.13;;;18.22;38.56
20624;BME280;10471;42.736;23.346;2023-01-19T12:04:52;94383.78;;;18.24;38.70
20624;BME280;10471;42.736;23.346;2023-01-19T12:07:25;94398.31;;;18.26;38.82
20624;BME280;10471;42.736;23.346;2023-01-19T12:09:55;94391.84;;;18.42;38.39
20624;BME280;10471;42.736;23.346;2023-01-19T12:12:29;94410.56;;;18.61;38.07
20624;BME280;10471;42.736;23.346;2023-01-19T12:17:33;94399.63;;;18.85;37.08
20624;BME280;10471;42.736;23.346;2023-01-19T12:20:39;94392.06;;;18.87;37.52
20624;BME280;10471;42.736;23.346;2023-01-19T12:28:36;94382.06;;;18.65;37.58
20624;BME280;10471;42.736;23.346;2023-01-19T12:31:03;94405.50;;;18.56;37.53
20624;BME280;10471;42.736;23.346;2023-01-19T12:33:37;94400.59;;;18.58;37.72
20624;BME280;10471;42.736;23.346;2023-01-19T12:38:52;94394.38;;;18.70;36.92
20624;BME280;10471;42.736;23.346;2023-01-19T12:43:48;94384.59;;;18.77;36.76
20624;BME280;10471;42.736;23.346;2023-01-19T12:46:33;94397.25;;;18.80;37.00
20624;BME280;10471;42.736;23.346;2023-01-19T12:51:32;94405.22;;;18.77;37.24
20624;BME280;10471;42.736;23.346;2023-01-19T12:53:58;94402.91;;;18.60;37.33
20624;BME280;10471;42.736;23.346;2023-01-19T12:56:29;94409.72;;;18.57;37.29
20624;BME280;10471;42.736;23.346;2023-01-19T12:58:55;94394.13;;;18.59;36.81
20624;BME280;10471;42.736;23.346;2023-01-19T13:01:21;94411.97;;;18.55;37.48
20624;BME280;10471;42.736;23.346;2023-01-19T13:14:43;94405.06;;;18.54;37.46
20624;BME280;10471;42.736;23.346;2023-01-19T13:17:45;94384.44;;;18.51;37.13
20624;BME280;10471;42.736;23.346;2023-01-19T13:20:23;94401.66;;;18.39;37.02
20624;BME280;10471;42.736;23.346;2023-01-19T13:25:33;94400.31;;;18.29;37.67
20624;BME280;10471;42.736;23.346;2023-01-19T13:28:00;94389.28;;;18.31;37.96
20624;BME280;10471;42.736;23.346;2023-01-19T13:30:27;94381.09;;;18.39;37.11
20624;BME280;10471;42.736;23.346;2023-01-19T13:33:05;94383.94;;;18.31;37.51
20624;BME280;10471;42.736;23.346;2023-01-19T13:35:33;94372.25;;;18.20;37.33
20624;BME280;10471;42.736;23.346;2023-01-19T13:37:59;94364.34;;;18.23;37.63
20624;BME280;10471;42.736;23.346;2023-01-19T13:40:37;94374.75;;;18.28;37.56
20624;BME280;10471;42.736;23.346;2023-01-19T13:43:08;94372.56;;;18.34;37.36
20624;BME280;10471;42.736;23.346;2023-01-19T13:45:39;94353.09;;;18.48;37.44
20624;BME280;10471;42.736;23.346;2023-01-19T13:48:10;94368.13;;;18.56;36.81
20624;BME280;10471;42.736;23.346;2023-01-19T13:50:38;94371.66;;;18.60;36.91
20624;BME280;10471;42.736;23.346;2023-01-19T13:53:19;94387.03;;;18.67;36.84
20624;BME280;10471;42.736;23.346;2023-01-19T13:55:45;94374.88;;;18.69;37.11
20624;BME280;10471;42.736;23.346;2023-01-19T13:58:38;94381.78;;;18.70;36.61
20624;BME280;10471;42.736;23.346;2023-01-19T14:01:04;94375.31;;;18.71;37.17
20624;BME280;10471;42.736;23.346;2023-01-19T14:03:29;94384.88;;;18.72;36.71
20624;BME280;10471;42.736;23.346;2023-01-19T14:05:54;94380.38;;;18.76;36.90
20624;BME280;10471;42.736;23.346;2023-01-19T14:08:21;94376.44;;;18.70;36.70
20624;BME280;10471;42.736;23.346;2023-01-19T14:13:23;94379.34;;;18.46;37.61
20624;BME280;10471;42.736;23.346;2023-01-19T14:15:51;94385.59;;;18.35;37.63